Terminal Aerodrome Forecast
Issued by NWS

Home | Current Version | Previous Version | Text Only | Print | Product List | Glossary On
Versions: 1 2 3 4 5 6 7 8 9 10 11 12 13 14
000
FTUS43 KILX 020500
TAFBMI
TAF
KBMI 020531Z 0206/0306 17018G25KT P6SM BKN250
     FM020800 20016G24KT P6SM VCSH BKN060 WS020/20045KT
     FM021400 22020G29KT 6SM -SHRA VCTS BKN035CB
     FM022100 32012KT P6SM BKN120=

USA.gov is the U.S. government's official web portal to all federal, state and local government web resources and services.